sensor_id;sensor_type;location;lat;lon;timestamp;pressure;altitude;pressure_sealevel;temperature;humidity
78800;BME280;68148;55.328;86.106;2024-01-30T00:00:25;101365.91;;;-18.03;89.93
78800;BME280;68148;55.328;86.106;2024-01-30T00:02:53;101364.28;;;-18.01;89.65
78800;BME280;68148;55.328;86.106;2024-01-30T00:05:19;101361.78;;;-18.01;90.33
78800;BME280;68148;55.328;86.106;2024-01-30T00:07:44;101363.47;;;-18.00;89.94
78800;BME280;68148;55.328;86.106;2024-01-30T00:10:10;101364.25;;;-18.03;89.98
78800;BME280;68148;55.328;86.106;2024-01-30T00:12:36;101368.50;;;-18.02;90.16
78800;BME280;68148;55.328;86.106;2024-01-30T00:15:02;101360.09;;;-18.02;90.45
78800;BME280;68148;55.328;86.106;2024-01-30T00:17:28;101362.63;;;-18.01;90.34
78800;BME280;68148;55.328;86.106;2024-01-30T00:19:54;101362.53;;;-18.04;90.51
78800;BME280;68148;55.328;86.106;2024-01-30T00:22:20;101365.03;;;-18.07;89.89
78800;BME280;68148;55.328;86.106;2024-01-30T00:24:51;101368.44;;;-18.03;90.23
78800;BME280;68148;55.328;86.106;2024-01-30T00:27:16;101366.00;;;-17.99;90.23
78800;BME280;68148;55.328;86.106;2024-01-30T00:29:42;101364.31;;;-18.00;89.85
78800;BME280;68148;55.328;86.106;2024-01-30T00:32:08;101365.22;;;-17.98;90.02
78800;BME280;68148;55.328;86.106;2024-01-30T00:34:34;101360.84;;;-18.06;90.05
78800;BME280;68148;55.328;86.106;2024-01-30T00:37:00;101374.00;;;-18.19;89.89
78800;BME280;68148;55.328;86.106;2024-01-30T00:39:25;101372.31;;;-18.19;90.37
78800;BME280;68148;55.328;86.106;2024-01-30T00:41:53;101364.06;;;-18.12;90.25
78800;BME280;68148;55.328;86.106;2024-01-30T00:44:19;101368.16;;;-18.17;90.38
78800;BME280;68148;55.328;86.106;2024-01-30T00:46:45;101361.16;;;-18.29;90.09
78800;BME280;68148;55.328;86.106;2024-01-30T00:49:10;101356.13;;;-18.29;90.20
78800;BME280;68148;55.328;86.106;2024-01-30T00:51:40;101363.00;;;-18.23;90.24
78800;BME280;68148;55.328;86.106;2024-01-30T00:54:06;101363.75;;;-18.27;90.25
78800;BME280;68148;55.328;86.106;2024-01-30T00:56:32;101371.28;;;-18.27;90.17
78800;BME280;68148;55.328;86.106;2024-01-30T00:58:57;101359.53;;;-18.28;90.39
78800;BME280;68148;55.328;86.106;2024-01-30T01:01:24;101362.91;;;-18.26;90.18
78800;BME280;68148;55.328;86.106;2024-01-30T01:03:50;101365.50;;;-18.23;90.37
78800;BME280;68148;55.328;86.106;2024-01-30T01:06:17;101370.44;;;-18.28;90.67
78800;BME280;68148;55.328;86.106;2024-01-30T01:08:49;101368.69;;;-18.30;90.90
78800;BME280;68148;55.328;86.106;2024-01-30T01:11:17;101348.75;;;-18.21;91.04
78800;BME280;68148;55.328;86.106;2024-01-30T01:13:43;101368.41;;;-18.06;91.34
78800;BME280;68148;55.328;86.106;2024-01-30T01:16:09;101366.84;;;-18.00;90.95
78800;BME280;68148;55.328;86.106;2024-01-30T01:18:34;101372.78;;;-17.96;90.70
78800;BME280;68148;55.328;86.106;2024-01-30T01:21:03;101350.69;;;-18.08;90.71
78800;BME280;68148;55.328;86.106;2024-01-30T01:23:37;101369.25;;;-18.06;90.17
78800;BME280;68148;55.328;86.106;2024-01-30T01:26:03;101371.03;;;-17.99;90.34
78800;BME280;68148;55.328;86.106;2024-01-30T01:28:36;101369.34;;;-18.01;89.92
78800;BME280;68148;55.328;86.106;2024-01-30T01:31:02;101372.81;;;-17.95;90.05
78800;BME280;68148;55.328;86.106;2024-01-30T01:33:29;101360.84;;;-18.05;89.64
78800;BME280;68148;55.328;86.106;2024-01-30T01:35:56;101362.53;;;-18.04;89.80
78800;BME280;68148;55.328;86.106;2024-01-30T01:38:24;101362.44;;;-18.10;89.82
78800;BME280;68148;55.328;86.106;2024-01-30T01:40:52;101360.69;;;-18.12;89.95
78800;BME280;68148;55.328;86.106;2024-01-30T01:43:19;101352.94;;;-18.22;90.02
78800;BME280;68148;55.328;86.106;2024-01-30T01:45:49;101342.69;;;-18.29;89.77
78800;BME280;68148;55.328;86.106;2024-01-30T01:48:39;101374.84;;;-18.17;90.37
78800;BME280;68148;55.328;86.106;2024-01-30T01:51:10;101348.44;;;-18.36;90.52
78800;BME280;68148;55.328;86.106;2024-01-30T01:53:45;101366.16;;;-18.32;90.96
78800;BME280;68148;55.328;86.106;2024-01-30T01:56:13;101361.91;;;-18.34;90.83
78800;BME280;68148;55.328;86.106;2024-01-30T01:58:45;101373.94;;;-18.21;91.06
78800;BME280;68148;55.328;86.106;2024-01-30T02:01:22;101369.44;;;-18.36;90.83
78800;BME280;68148;55.328;86.106;2024-01-30T02:04:00;101373.75;;;-18.29;90.66
78800;BME280;68148;55.328;86.106;2024-01-30T02:06:26;101371.31;;;-18.26;90.78
78800;BME280;68148;55.328;86.106;2024-01-30T02:08:53;101374.63;;;-18.28;90.76
78800;BME280;68148;55.328;86.106;2024-01-30T02:11:20;101364.50;;;-18.31;90.53
78800;BME280;68148;55.328;86.106;2024-01-30T02:13:48;101372.03;;;-18.31;90.57
78800;BME280;68148;55.328;86.106;2024-01-30T02:16:16;101364.56;;;-18.28;90.54
78800;BME280;68148;55.328;86.106;2024-01-30T02:18:43;101357.63;;;-18.37;90.87
78800;BME280;68148;55.328;86.106;2024-01-30T02:21:09;101369.69;;;-18.24;90.46
78800;BME280;68148;55.328;86.106;2024-01-30T02:23:36;101372.41;;;-18.52;90.91
78800;BME280;68148;55.328;86.106;2024-01-30T02:26:04;101361.50;;;-18.53;91.23
78800;BME280;68148;55.328;86.106;2024-01-30T02:28:30;101363.38;;;-18.44;90.76
78800;BME280;68148;55.328;86.106;2024-01-30T02:30:59;101372.63;;;-18.41;90.51
78800;BME280;68148;55.328;86.106;2024-01-30T02:33:25;101373.22;;;-18.53;90.46
78800;BME280;68148;55.328;86.106;2024-01-30T02:35:50;101372.38;;;-18.54;90.49
78800;BME280;68148;55.328;86.106;2024-01-30T02:38:17;101366.53;;;-18.53;90.42
78800;BME280;68148;55.328;86.106;2024-01-30T02:40:44;101370.00;;;-18.48;90.79
78800;BME280;68148;55.328;86.106;2024-01-30T02:43:11;101372.25;;;-18.58;90.97
78800;BME280;68148;55.328;86.106;2024-01-30T02:45:41;101359.66;;;-18.58;90.67
78800;BME280;68148;55.328;86.106;2024-01-30T02:48:07;101365.72;;;-18.50;90.34
78800;BME280;68148;55.328;86.106;2024-01-30T02:50:33;101369.88;;;-18.52;90.42
78800;BME280;68148;55.328;86.106;2024-01-30T02:52:59;101363.38;;;-18.44;90.59
78800;BME280;68148;55.328;86.106;2024-01-30T02:55:27;101357.22;;;-18.55;90.18
78800;BME280;68148;55.328;86.106;2024-01-30T02:57:57;101372.59;;;-18.44;90.19
78800;BME280;68148;55.328;86.106;2024-01-30T03:00:23;101378.41;;;-18.46;90.14
78800;BME280;68148;55.328;86.106;2024-01-30T03:02:49;101377.84;;;-18.34;90.05
78800;BME280;68148;55.328;86.106;2024-01-30T03:05:17;101370.00;;;-18.48;90.21
78800;BME280;68148;55.328;86.106;2024-01-30T03:07:45;101371.88;;;-18.39;89.85
78800;BME280;68148;55.328;86.106;2024-01-30T03:10:12;101372.63;;;-18.41;89.81
78800;BME280;68148;55.328;86.106;2024-01-30T03:12:38;101379.44;;;-18.39;89.70
78800;BME280;68148;55.328;86.106;2024-01-30T03:15:06;101378.28;;;-18.52;89.57
78800;BME280;68148;55.328;86.106;2024-01-30T03:17:31;101381.75;;;-18.47;89.41
78800;BME280;68148;55.328;86.106;2024-01-30T03:19:57;101380.69;;;-18.58;89.33
78800;BME280;68148;55.328;86.106;2024-01-30T03:22:23;101375.13;;;-18.43;89.18
78800;BME280;68148;55.328;86.106;2024-01-30T03:24:49;101378.25;;;-18.53;89.71
78800;BME280;68148;55.328;86.106;2024-01-30T03:27:15;101380.16;;;-18.44;89.83
78800;BME280;68148;55.328;86.106;2024-01-30T03:29:42;101378.00;;;-18.28;89.36
78800;BME280;68148;55.328;86.106;2024-01-30T03:32:14;101367.94;;;-18.28;88.96
78800;BME280;68148;55.328;86.106;2024-01-30T03:34:39;101383.16;;;-18.22;88.82
78800;BME280;68148;55.328;86.106;2024-01-30T03:37:05;101385.94;;;-18.11;88.65
78800;BME280;68148;55.328;86.106;2024-01-30T03:39:31;101390.16;;;-18.08;88.20
78800;BME280;68148;55.328;86.106;2024-01-30T03:41:57;101375.63;;;-18.20;88.45
78800;BME280;68148;55.328;86.106;2024-01-30T03:44:26;101392.63;;;-18.11;88.09
78800;BME280;68148;55.328;86.106;2024-01-30T03:46:51;101388.19;;;-17.84;88.08
78800;BME280;68148;55.328;86.106;2024-01-30T03:49:19;101391.44;;;-17.88;87.44
78800;BME280;68148;55.328;86.106;2024-01-30T03:51:45;101395.66;;;-17.87;87.32
78800;BME280;68148;55.328;86.106;2024-01-30T03:54:12;101390.56;;;-17.90;87.18
78800;BME280;68148;55.328;86.106;2024-01-30T03:56:38;101381.19;;;-17.96;87.25
78800;BME280;68148;55.328;86.106;2024-01-30T03:59:04;101391.72;;;-17.76;87.90
78800;BME280;68148;55.328;86.106;2024-01-30T04:01:30;101398.94;;;-17.49;86.77
78800;BME280;68148;55.328;86.106;2024-01-30T04:03:56;101388.06;;;-17.45;86.21
78800;BME280;68148;55.328;86.106;2024-01-30T04:06:21;101393.44;;;-17.29;86.32
78800;BME280;68148;55.328;86.106;2024-01-30T04:08:47;101392.53;;;-17.30;86.19
78800;BME280;68148;55.328;86.106;2024-01-30T04:11:14;101399.19;;;-17.35;85.90
78800;BME280;68148;55.328;86.106;2024-01-30T04:13:40;101395.13;;;-17.27;85.55
78800;BME280;68148;55.328;86.106;2024-01-30T04:16:06;101386.13;;;-17.14;85.54
78800;BME280;68148;55.328;86.106;2024-01-30T04:18:32;101392.59;;;-17.28;85.02
78800;BME280;68148;55.328;86.106;2024-01-30T04:20:58;101387.72;;;-17.19;85.30
78800;BME280;68148;55.328;86.106;2024-01-30T04:23:29;101390.53;;;-17.04;85.63
78800;BME280;68148;55.328;86.106;2024-01-30T04:26:03;101396.03;;;-17.23;84.48
78800;BME280;68148;55.328;86.106;2024-01-30T04:28:29;101397.94;;;-17.11;85.00
78800;BME280;68148;55.328;86.106;2024-01-30T04:30:55;101399.78;;;-17.03;84.87
78800;BME280;68148;55.328;86.106;2024-01-30T04:33:21;101406.84;;;-16.83;84.62
78800;BME280;68148;55.328;86.106;2024-01-30T04:35:47;101406.81;;;-16.86;84.12
78800;BME280;68148;55.328;86.106;2024-01-30T04:38:12;101405.25;;;-16.78;84.12
78800;BME280;68148;55.328;86.106;2024-01-30T04:40:39;101413.50;;;-16.88;84.52
78800;BME280;68148;55.328;86.106;2024-01-30T04:43:06;101400.25;;;-16.75;84.39
78800;BME280;68148;55.328;86.106;2024-01-30T04:45:37;101408.50;;;-16.84;83.96
78800;BME280;68148;55.328;86.106;2024-01-30T04:48:07;101414.09;;;-16.50;84.71
78800;BME280;68148;55.328;86.106;2024-01-30T04:50:33;101400.66;;;-16.48;83.58
78800;BME280;68148;55.328;86.106;2024-01-30T04:52:59;101400.50;;;-16.58;83.42
78800;BME280;68148;55.328;86.106;2024-01-30T04:55:25;101410.56;;;-16.60;83.67
78800;BME280;68148;55.328;86.106;2024-01-30T04:57:52;101410.91;;;-16.38;83.42
78800;BME280;68148;55.328;86.106;2024-01-30T05:00:23;101409.25;;;-16.36;83.07
78800;BME280;68148;55.328;86.106;2024-01-30T05:02:48;101406.19;;;-16.17;83.48
78800;BME280;68148;55.328;86.106;2024-01-30T05:05:14;101406.22;;;-16.14;82.44
78800;BME280;68148;55.328;86.106;2024-01-30T05:07:43;101397.81;;;-16.13;82.38
78800;BME280;68148;55.328;86.106;2024-01-30T05:10:09;101398.94;;;-15.91;82.63
78800;BME280;68148;55.328;86.106;2024-01-30T05:12:39;101409.69;;;-16.06;81.78
78800;BME280;68148;55.328;86.106;2024-01-30T05:15:07;101404.81;;;-15.94;81.20
78800;BME280;68148;55.328;86.106;2024-01-30T05:17:37;101418.28;;;-15.95;81.82
78800;BME280;68148;55.328;86.106;2024-01-30T05:20:06;101395.25;;;-16.14;81.65
78800;BME280;68148;55.328;86.106;2024-01-30T05:22:32;101394.69;;;-15.94;82.03
78800;BME280;68148;55.328;86.106;2024-01-30T05:24:58;101412.25;;;-16.04;81.19
78800;BME280;68148;55.328;86.106;2024-01-30T05:27:24;101409.06;;;-15.91;81.44
78800;BME280;68148;55.328;86.106;2024-01-30T05:29:51;101416.09;;;-15.69;81.96
78800;BME280;68148;55.328;86.106;2024-01-30T05:32:18;101399.22;;;-15.71;81.36
78800;BME280;68148;55.328;86.106;2024-01-30T05:34:44;101394.78;;;-15.86;81.16
78800;BME280;68148;55.328;86.106;2024-01-30T05:37:10;101394.78;;;-15.87;80.63
78800;BME280;68148;55.328;86.106;2024-01-30T05:39:36;101405.16;;;-15.63;81.22
78800;BME280;68148;55.328;86.106;2024-01-30T05:42:02;101397.00;;;-15.41;80.72
78800;BME280;68148;55.328;86.106;2024-01-30T05:44:28;101403.50;;;-15.67;80.71
78800;BME280;68148;55.328;86.106;2024-01-30T05:46:54;101395.09;;;-15.60;81.10
78800;BME280;68148;55.328;86.106;2024-01-30T05:49:20;101385.16;;;-15.45;80.61
78800;BME280;68148;55.328;86.106;2024-01-30T05:51:46;101396.22;;;-15.33;80.39
78800;BME280;68148;55.328;86.106;2024-01-30T05:54:13;101392.28;;;-15.10;80.71
78800;BME280;68148;55.328;86.106;2024-01-30T05:57:06;101370.19;;;-15.23;79.48
78800;BME280;68148;55.328;86.106;2024-01-30T05:59:42;101383.03;;;-15.05;79.72
78800;BME280;68148;55.328;86.106;2024-01-30T06:02:22;101379.66;;;-15.04;79.44
78800;BME280;68148;55.328;86.106;2024-01-30T06:05:04;101379.66;;;-15.04;79.31
78800;BME280;68148;55.328;86.106;2024-01-30T06:07:31;101391.38;;;-15.13;79.55
78800;BME280;68148;55.328;86.106;2024-01-30T06:09:58;101390.72;;;-14.96;79.59
78800;BME280;68148;55.328;86.106;2024-01-30T06:12:23;101371.50;;;-14.71;79.31
78800;BME280;68148;55.328;86.106;2024-01-30T06:14:49;101390.06;;;-14.75;80.08
78800;BME280;68148;55.328;86.106;2024-01-30T06:17:15;101383.47;;;-14.54;79.64
78800;BME280;68148;55.328;86.106;2024-01-30T06:19:41;101392.91;;;-14.33;78.64
78800;BME280;68148;55.328;86.106;2024-01-30T06:22:10;101392.06;;;-14.29;78.59
78800;BME280;68148;55.328;86.106;2024-01-30T06:24:36;101382.88;;;-14.10;78.76
78800;BME280;68148;55.328;86.106;2024-01-30T06:27:02;101390.41;;;-14.23;77.79
78800;BME280;68148;55.328;86.106;2024-01-30T06:29:28;101387.81;;;-14.32;77.56
78800;BME280;68148;55.328;86.106;2024-01-30T06:32:02;101391.00;;;-14.62;78.15
78800;BME280;68148;55.328;86.106;2024-01-30T06:34:32;101387.72;;;-14.46;78.86
78800;BME280;68148;55.328;86.106;2024-01-30T06:37:01;101391.09;;;-14.47;78.17
78800;BME280;68148;55.328;86.106;2024-01-30T06:39:28;101380.19;;;-14.38;78.29
78800;BME280;68148;55.328;86.106;2024-01-30T06:42:07;101393.66;;;-14.50;78.37
78800;BME280;68148;55.328;86.106;2024-01-30T06:44:33;101389.44;;;-14.40;78.65
78800;BME280;68148;55.328;86.106;2024-01-30T06:46:59;101391.19;;;-14.31;78.02
78800;BME280;68148;55.328;86.106;2024-01-30T06:49:32;101387.97;;;-14.06;78.33
78800;BME280;68148;55.328;86.106;2024-01-30T06:51:58;101396.34;;;-14.24;78.08
78800;BME280;68148;55.328;86.106;2024-01-30T06:54:26;101393.69;;;-14.39;78.78
78800;BME280;68148;55.328;86.106;2024-01-30T06:56:51;101387.88;;;-14.24;79.19
78800;BME280;68148;55.328;86.106;2024-01-30T06:59:19;101384.59;;;-14.12;79.48
78800;BME280;68148;55.328;86.106;2024-01-30T07:01:46;101388.00;;;-14.03;79.96
78800;BME280;68148;55.328;86.106;2024-01-30T07:04:21;101388.88;;;-13.98;79.24
78800;BME280;68148;55.328;86.106;2024-01-30T07:06:51;101386.44;;;-13.76;78.74
78800;BME280;68148;55.328;86.106;2024-01-30T07:09:19;101394.03;;;-13.87;78.17
78800;BME280;68148;55.328;86.106;2024-01-30T07:11:45;101389.72;;;-13.99;78.37
78800;BME280;68148;55.328;86.106;2024-01-30T07:14:11;101378.78;;;-13.89;77.88
78800;BME280;68148;55.328;86.106;2024-01-30T07:16:37;101372.78;;;-14.04;77.44
78800;BME280;68148;55.328;86.106;2024-01-30T07:19:04;101392.31;;;-13.90;77.36
78800;BME280;68148;55.328;86.106;2024-01-30T07:21:30;101394.88;;;-13.79;77.41
78800;BME280;68148;55.328;86.106;2024-01-30T07:23:56;101400.00;;;-13.74;77.73
78800;BME280;68148;55.328;86.106;2024-01-30T07:26:23;101391.53;;;-13.70;76.73
78800;BME280;68148;55.328;86.106;2024-01-30T07:28:50;101381.34;;;-13.85;77.27
78800;BME280;68148;55.328;86.106;2024-01-30T07:31:16;101389.03;;;-13.69;77.17
78800;BME280;68148;55.328;86.106;2024-01-30T07:33:41;101379.72;;;-13.68;76.50
78800;BME280;68148;55.328;86.106;2024-01-30T07:36:07;101388.19;;;-13.63;77.15
78800;BME280;68148;55.328;86.106;2024-01-30T07:38:34;101388.16;;;-13.72;77.13
78800;BME280;68148;55.328;86.106;2024-01-30T07:41:00;101381.44;;;-13.66;76.95
78800;BME280;68148;55.328;86.106;2024-01-30T07:43:27;101381.47;;;-13.49;76.81
78800;BME280;68148;55.328;86.106;2024-01-30T07:46:03;101386.53;;;-13.61;76.75
78800;BME280;68148;55.328;86.106;2024-01-30T07:48:30;101378.88;;;-13.64;76.89
78800;BME280;68148;55.328;86.106;2024-01-30T07:51:02;101381.28;;;-13.92;77.26
78800;BME280;68148;55.328;86.106;2024-01-30T07:53:28;101381.38;;;-13.78;77.88
78800;BME280;68148;55.328;86.106;2024-01-30T07:55:54;101378.00;;;-13.75;77.41
78800;BME280;68148;55.328;86.106;2024-01-30T07:58:20;101378.72;;;-13.99;77.46
78800;BME280;68148;55.328;86.106;2024-01-30T08:00:46;101372.72;;;-14.09;78.45
78800;BME280;68148;55.328;86.106;2024-01-30T08:03:12;101382.16;;;-13.90;78.23
78800;BME280;68148;55.328;86.106;2024-01-30T08:05:40;101379.63;;;-13.88;78.17
78800;BME280;68148;55.328;86.106;2024-01-30T08:08:07;101387.91;;;-14.21;78.29
78800;BME280;68148;55.328;86.106;2024-01-30T08:10:33;101378.59;;;-14.25;79.10
78800;BME280;68148;55.328;86.106;2024-01-30T08:12:59;101383.81;;;-13.99;78.87
78800;BME280;68148;55.328;86.106;2024-01-30T08:15:25;101394.09;;;-13.73;78.54
78800;BME280;68148;55.328;86.106;2024-01-30T08:17:51;101385.66;;;-13.65;77.77
78800;BME280;68148;55.328;86.106;2024-01-30T08:20:16;101399.16;;;-13.70;77.65
78800;BME280;68148;55.328;86.106;2024-01-30T08:22:43;101397.41;;;-13.79;77.80
78800;BME280;68148;55.328;86.106;2024-01-30T08:25:09;101399.88;;;-13.93;78.33
78800;BME280;68148;55.328;86.106;2024-01-30T08:27:35;101394.72;;;-14.12;78.41
78800;BME280;68148;55.328;86.106;2024-01-30T08:30:02;101394.78;;;-14.00;78.89
78800;BME280;68148;55.328;86.106;2024-01-30T08:32:28;101386.19;;;-14.22;79.27
78800;BME280;68148;55.328;86.106;2024-01-30T08:35:06;101376.03;;;-14.25;79.39
78800;BME280;68148;55.328;86.106;2024-01-30T08:37:35;101390.44;;;-14.18;79.73
78800;BME280;68148;55.328;86.106;2024-01-30T08:40:01;101397.97;;;-14.33;80.04
78800;BME280;68148;55.328;86.106;2024-01-30T08:42:28;101391.19;;;-14.33;80.25
78800;BME280;68148;55.328;86.106;2024-01-30T08:44:53;101399.75;;;-14.14;80.32
78800;BME280;68148;55.328;86.106;2024-01-30T08:47:19;101388.75;;;-14.21;79.71
78800;BME280;68148;55.328;86.106;2024-01-30T08:49:46;101388.78;;;-14.16;79.64
78800;BME280;68148;55.328;86.106;2024-01-30T08:52:12;101386.19;;;-14.25;80.28
78800;BME280;68148;55.328;86.106;2024-01-30T08:54:41;101384.59;;;-14.08;79.69
78800;BME280;68148;55.328;86.106;2024-01-30T08:57:06;101383.72;;;-14.10;79.23
78800;BME280;68148;55.328;86.106;2024-01-30T08:59:32;101385.34;;;-14.26;79.87
78800;BME280;68148;55.328;86.106;2024-01-30T09:01:58;101387.00;;;-14.29;80.67
78800;BME280;68148;55.328;86.106;2024-01-30T09:04:25;101391.22;;;-14.27;80.53
78800;BME280;68148;55.328;86.106;2024-01-30T09:06:51;101378.59;;;-14.24;80.77
78800;BME280;68148;55.328;86.106;2024-01-30T09:09:17;101379.44;;;-14.20;80.67
78800;BME280;68148;55.328;86.106;2024-01-30T09:11:44;101375.19;;;-14.26;81.32
78800;BME280;68148;55.328;86.106;2024-01-30T09:14:10;101381.06;;;-14.31;81.53
78800;BME280;68148;55.328;86.106;2024-01-30T09:16:40;101354.06;;;-14.22;81.31
78800;BME280;68148;55.328;86.106;2024-01-30T09:19:06;101375.19;;;-14.23;81.07
78800;BME280;68148;55.328;86.106;2024-01-30T09:21:31;101384.53;;;-14.20;80.94
78800;BME280;68148;55.328;86.106;2024-01-30T09:24:03;101382.75;;;-14.33;81.21
78800;BME280;68148;55.328;86.106;2024-01-30T09:26:29;101384.50;;;-14.25;81.50
78800;BME280;68148;55.328;86.106;2024-01-30T09:28:55;101379.31;;;-14.40;81.92
78800;BME280;68148;55.328;86.106;2024-01-30T09:31:23;101362.34;;;-14.52;82.15
78800;BME280;68148;55.328;86.106;2024-01-30T09:33:54;101379.44;;;-14.23;81.72
78800;BME280;68148;55.328;86.106;2024-01-30T09:36:23;101375.97;;;-14.34;82.03
78800;BME280;68148;55.328;86.106;2024-01-30T09:38:50;101369.97;;;-14.44;82.78
78800;BME280;68148;55.328;86.106;2024-01-30T09:41:27;101363.28;;;-14.34;82.53
78800;BME280;68148;55.328;86.106;2024-01-30T09:44:01;101349.72;;;-14.41;82.18
78800;BME280;68148;55.328;86.106;2024-01-30T09:46:39;101370.06;;;-14.30;82.70
78800;BME280;68148;55.328;86.106;2024-01-30T09:49:06;101357.44;;;-14.27;82.07
78800;BME280;68148;55.328;86.106;2024-01-30T09:51:36;101342.97;;;-14.41;82.68
78800;BME280;68148;55.328;86.106;2024-01-30T09:54:03;101348.94;;;-14.31;82.69
78800;BME280;68148;55.328;86.106;2024-01-30T09:56:29;101341.31;;;-14.35;82.71
78800;BME280;68148;55.328;86.106;2024-01-30T09:58:56;101337.13;;;-14.32;82.66
78800;BME280;68148;55.328;86.106;2024-01-30T10:01:22;101340.41;;;-14.44;83.26
78800;BME280;68148;55.328;86.106;2024-01-30T10:03:50;101339.69;;;-14.26;82.97
78800;BME280;68148;55.328;86.106;2024-01-30T10:06:17;101341.22;;;-14.48;83.16
78800;BME280;68148;55.328;86.106;2024-01-30T10:08:42;101347.19;;;-14.40;83.37
78800;BME280;68148;55.328;86.106;2024-01-30T10:11:09;101344.63;;;-14.53;83.76
78800;BME280;68148;55.328;86.106;2024-01-30T10:13:34;101340.41;;;-14.44;83.40
78800;BME280;68148;55.328;86.106;2024-01-30T10:16:05;101337.06;;;-14.43;83.76
78800;BME280;68148;55.328;86.106;2024-01-30T10:18:34;101341.22;;;-14.52;84.09
78800;BME280;68148;55.328;86.106;2024-01-30T10:21:25;101314.03;;;-14.78;85.06
78800;BME280;68148;55.328;86.106;2024-01-30T10:23:52;101326.75;;;-14.70;85.16
78800;BME280;68148;55.328;86.106;2024-01-30T10:26:18;101335.22;;;-14.65;84.74
78800;BME280;68148;55.328;86.106;2024-01-30T10:28:44;101330.16;;;-14.68;85.27
78800;BME280;68148;55.328;86.106;2024-01-30T10:31:18;101341.09;;;-14.69;85.64
78800;BME280;68148;55.328;86.106;2024-01-30T10:33:48;101314.88;;;-14.80;85.59
78800;BME280;68148;55.328;86.106;2024-01-30T10:36:31;101333.47;;;-14.77;85.64
78800;BME280;68148;55.328;86.106;2024-01-30T10:39:10;101315.72;;;-14.81;85.81
78800;BME280;68148;55.328;86.106;2024-01-30T10:42:20;101332.69;;;-14.67;85.50
78800;BME280;68148;55.328;86.106;2024-01-30T10:47:37;101305.53;;;-14.83;85.79
78800;BME280;68148;55.328;86.106;2024-01-30T10:50:05;101312.25;;;-14.88;86.43
78800;BME280;68148;55.328;86.106;2024-01-30T10:52:38;101293.63;;;-14.95;86.32
78800;BME280;68148;55.328;86.106;2024-01-30T10:55:05;101328.34;;;-14.84;86.82
78800;BME280;68148;55.328;86.106;2024-01-30T10:57:34;101319.88;;;-14.86;86.73
78800;BME280;68148;55.328;86.106;2024-01-30T11:00:01;101309.69;;;-14.93;86.84
78800;BME280;68148;55.328;86.106;2024-01-30T11:02:28;101323.31;;;-14.78;86.94
78800;BME280;68148;55.328;86.106;2024-01-30T11:04:57;101306.41;;;-14.81;86.58
78800;BME280;68148;55.328;86.106;2024-01-30T11:07:25;101323.38;;;-14.72;86.67
78800;BME280;68148;55.328;86.106;2024-01-30T11:09:53;101324.19;;;-14.73;87.01
78800;BME280;68148;55.328;86.106;2024-01-30T11:12:27;101325.84;;;-14.80;86.81
78800;BME280;68148;55.328;86.106;2024-01-30T11:15:02;101324.97;;;-14.83;86.83
78800;BME280;68148;55.328;86.106;2024-01-30T11:20:29;101324.06;;;-14.90;87.07
78800;BME280;68148;55.328;86.106;2024-01-30T11:22:56;101319.88;;;-14.89;87.26
78800;BME280;68148;55.328;86.106;2024-01-30T11:25:25;101324.09;;;-14.88;87.17
78800;BME280;68148;55.328;86.106;2024-01-30T11:27:53;101300.28;;;-15.07;87.69
78800;BME280;68148;55.328;86.106;2024-01-30T11:33:11;101309.63;;;-15.02;88.01
78800;BME280;68148;55.328;86.106;2024-01-30T11:35:41;101307.97;;;-14.97;87.38
78800;BME280;68148;55.328;86.106;2024-01-30T11:38:15;101313.88;;;-14.95;87.50
78800;BME280;68148;55.328;86.106;2024-01-30T11:40:43;101308.78;;;-15.02;87.76
78800;BME280;68148;55.328;86.106;2024-01-30T11:43:13;101307.91;;;-15.06;87.80
78800;BME280;68148;55.328;86.106;2024-01-30T11:45:39;101316.34;;;-15.07;87.71
78800;BME280;68148;55.328;86.106;2024-01-30T11:48:05;101312.94;;;-15.07;88.08
78800;BME280;68148;55.328;86.106;2024-01-30T11:50:37;101321.41;;;-15.04;87.86
78800;BME280;68148;55.328;86.106;2024-01-30T11:53:04;101309.47;;;-15.17;88.27
78800;BME280;68148;55.328;86.106;2024-01-30T11:55:33;101310.31;;;-15.20;88.45
78800;BME280;68148;55.328;86.106;2024-01-30T11:57:59;101317.06;;;-15.17;88.83
78800;BME280;68148;55.328;86.106;2024-01-30T12:00:37;101300.19;;;-15.18;88.47
78800;BME280;68148;55.328;86.106;2024-01-30T12:03:11;101311.22;;;-15.11;88.27
78800;BME280;68148;55.328;86.106;2024-01-30T12:05:40;101318.00;;;-15.09;88.50
78800;BME280;68148;55.328;86.106;2024-01-30T12:08:06;101306.16;;;-15.11;87.83
78800;BME280;68148;55.328;86.106;2024-01-30T12:10:32;101305.28;;;-15.15;88.81
78800;BME280;68148;55.328;86.106;2024-01-30T12:13:00;101303.56;;;-15.19;88.25
78800;BME280;68148;55.328;86.106;2024-01-30T12:15:26;101310.28;;;-15.23;88.21
78800;BME280;68148;55.328;86.106;2024-01-30T12:17:52;101302.69;;;-15.24;88.60
78800;BME280;68148;55.328;86.106;2024-01-30T12:20:19;101304.31;;;-15.31;88.82
78800;BME280;68148;55.328;86.106;2024-01-30T12:22:50;101299.19;;;-15.34;89.76
78800;BME280;68148;55.328;86.106;2024-01-30T12:25:17;101306.03;;;-15.27;89.31
78800;BME280;68148;55.328;86.106;2024-01-30T12:27:53;101293.44;;;-15.19;88.81
78800;BME280;68148;55.328;86.106;2024-01-30T12:30:20;101306.91;;;-15.20;88.69
78800;BME280;68148;55.328;86.106;2024-01-30T12:32:50;101300.19;;;-15.20;88.81
78800;BME280;68148;55.328;86.106;2024-01-30T12:35:18;101307.75;;;-15.21;89.02
78800;BME280;68148;55.328;86.106;2024-01-30T12:37:45;101304.31;;;-15.29;89.49
78800;BME280;68148;55.328;86.106;2024-01-30T12:40:13;101304.41;;;-15.17;89.06
78800;BME280;68148;55.328;86.106;2024-01-30T12:42:39;101299.25;;;-15.31;89.41